DRK301 VGHS-VQPR
Flight info
| Callsign | DRK301 |
|---|---|
| Flight time | 0h 50m |
| Altitude | 34000 |
| Route | TEGAK DCT SDP DCT BOGOP DCT TAKTI DCT PRO DCT PR |
| Aircraft | A319/M-SDE3FGHIRWY/LB1 |
Departure
| Time | 2026-05-09 08:00 |
|---|---|
| Airport | Hazrat Shahjalal International Airport (VGHS) |
Arrival
| Time | 2026-05-09 08:50 |
|---|---|
| Airport | Paro International Airport (VQPR) |
| Time | Latitude | Longitude | Altitude | Speed | Heading |
|---|---|---|---|---|---|
| 2026-05-09 07:42 | 23.84629 | 90.40514 | 36 ft | 0 kts | 53° |
| 2026-05-09 07:49 | 23.84627 | 90.40512 | 36 ft | 3 kts | 53° |
| 2026-05-09 07:49 | 23.84611 | 90.40489 | 35 ft | 4 kts | 50° |
| 2026-05-09 07:49 | 23.84593 | 90.40467 | 35 ft | 4 kts | 41° |
| 2026-05-09 07:50 | 23.84572 | 90.40452 | 35 ft | 4 kts | 359° |
| 2026-05-09 07:50 | 23.84562 | 90.40453 | 33 ft | 1 kts | 326° |
| 2026-05-09 07:53 | 23.84569 | 90.40448 | 35 ft | 3 kts | 326° |
| 2026-05-09 07:53 | 23.84595 | 90.40428 | 36 ft | 5 kts | 325° |
| 2026-05-09 07:54 | 23.84631 | 90.40400 | 36 ft | 7 kts | 322° |
| 2026-05-09 07:54 | 23.84676 | 90.40363 | 36 ft | 9 kts | 324° |
| 2026-05-09 07:54 | 23.84684 | 90.40303 | 35 ft | 12 kts | 239° |
| 2026-05-09 07:54 | 23.84635 | 90.40224 | 36 ft | 9 kts | 253° |
| 2026-05-09 07:55 | 23.84688 | 90.40167 | 35 ft | 14 kts | 325° |
| 2026-05-09 07:55 | 23.84772 | 90.40100 | 36 ft | 16 kts | 324° |
| 2026-05-09 07:55 | 23.84866 | 90.40026 | 36 ft | 17 kts | 324° |
| 2026-05-09 07:55 | 23.84967 | 90.39945 | 36 ft | 19 kts | 324° |
| 2026-05-09 07:56 | 23.85077 | 90.39858 | 35 ft | 20 kts | 323° |
| 2026-05-09 07:56 | 23.85192 | 90.39766 | 35 ft | 21 kts | 323° |
| 2026-05-09 07:56 | 23.85315 | 90.39670 | 36 ft | 22 kts | 324° |
| 2026-05-09 07:56 | 23.85442 | 90.39568 | 36 ft | 22 kts | 324° |
| 2026-05-09 07:57 | 23.85568 | 90.39468 | 36 ft | 23 kts | 324° |
| 2026-05-09 07:57 | 23.85685 | 90.39375 | 36 ft | 18 kts | 324° |
| 2026-05-09 07:57 | 23.85757 | 90.39318 | 36 ft | 11 kts | 324° |
| 2026-05-09 07:57 | 23.85759 | 90.39257 | 36 ft | 10 kts | 236° |
| 2026-05-09 07:58 | 23.85715 | 90.39191 | 36 ft | 12 kts | 233° |
| 2026-05-09 07:58 | 23.85664 | 90.39115 | 36 ft | 13 kts | 233° |
| 2026-05-09 07:58 | 23.85605 | 90.39028 | 36 ft | 15 kts | 233° |
| 2026-05-09 07:58 | 23.85542 | 90.38934 | 35 ft | 12 kts | 233° |
| 2026-05-09 07:59 | 23.85494 | 90.38870 | 35 ft | 7 kts | 208° |
| 2026-05-09 07:59 | 23.85449 | 90.38895 | 35 ft | 9 kts | 144° |
| 2026-05-09 07:59 | 23.85335 | 90.38985 | 36 ft | 48 kts | 144° |
| 2026-05-09 07:59 | 23.84878 | 90.39350 | 37 ft | 113 kts | 144° |
| 2026-05-09 08:00 | 23.84088 | 90.39977 | 39 ft | 165 kts | 143° |
| 2026-05-09 08:00 | 23.83138 | 90.40729 | 615 ft | 165 kts | 143° |
| 2026-05-09 08:00 | 23.82208 | 90.41465 | 1279 ft | 165 kts | 143° |
| 2026-05-09 08:00 | 23.81151 | 90.41998 | 1817 ft | 177 kts | 168° |
| 2026-05-09 08:01 | 23.79845 | 90.42073 | 2182 ft | 199 kts | 180° |
| 2026-05-09 08:01 | 23.78379 | 90.42085 | 2518 ft | 224 kts | 180° |
| 2026-05-09 08:01 | 23.76734 | 90.41986 | 2945 ft | 249 kts | 191° |
| 2026-05-09 08:01 | 23.75045 | 90.41325 | 3555 ft | 267 kts | 212° |
| 2026-05-09 08:02 | 23.74058 | 90.40508 | 4134 ft | 272 kts | 219° |
| 2026-05-09 08:02 | 23.72519 | 90.39287 | 5132 ft | 273 kts | 213° |
| 2026-05-09 08:02 | 23.70862 | 90.38272 | 6174 ft | 274 kts | 205° |
| 2026-05-09 08:02 | 23.69056 | 90.37550 | 7087 ft | 279 kts | 196° |
| 2026-05-09 08:03 | 23.67128 | 90.37160 | 8018 ft | 283 kts | 187° |
| 2026-05-09 08:03 | 23.65146 | 90.37106 | 8969 ft | 288 kts | 179° |
| 2026-05-09 08:03 | 23.63149 | 90.37392 | 9884 ft | 293 kts | 170° |
| 2026-05-09 08:03 | 23.61180 | 90.38028 | 10719 ft | 298 kts | 161° |
| 2026-05-09 08:04 | 23.59262 | 90.38982 | 11387 ft | 311 kts | 156° |
| 2026-05-09 08:04 | 23.57233 | 90.40041 | 11684 ft | 335 kts | 156° |
| 2026-05-09 08:04 | 23.55064 | 90.41171 | 12055 ft | 354 kts | 156° |
| 2026-05-09 08:04 | 23.52820 | 90.42341 | 12738 ft | 360 kts | 156° |
| 2026-05-09 08:05 | 23.50541 | 90.43531 | 13508 ft | 365 kts | 156° |
| 2026-05-09 08:05 | 23.48236 | 90.44731 | 14207 ft | 369 kts | 158° |
| 2026-05-09 08:05 | 23.45783 | 90.45464 | 14852 ft | 368 kts | 179° |
| 2026-05-09 08:05 | 23.43279 | 90.45047 | 15522 ft | 366 kts | 203° |
| 2026-05-09 08:06 | 23.41171 | 90.43533 | 16206 ft | 366 kts | 227° |
| 2026-05-09 08:06 | 23.39818 | 90.41194 | 16894 ft | 369 kts | 250° |
| 2026-05-09 08:06 | 23.39468 | 90.38430 | 17588 ft | 375 kts | 273° |
| 2026-05-09 08:06 | 23.40228 | 90.35700 | 18241 ft | 385 kts | 297° |
| 2026-05-09 08:07 | 23.41979 | 90.33523 | 18820 ft | 396 kts | 320° |
| 2026-05-09 08:07 | 23.44401 | 90.31949 | 19423 ft | 402 kts | 329° |
| 2026-05-09 08:07 | 23.46887 | 90.30601 | 20013 ft | 406 kts | 331° |
| 2026-05-09 08:07 | 23.49470 | 90.29318 | 20596 ft | 410 kts | 332° |
| 2026-05-09 08:08 | 23.52082 | 90.28057 | 21177 ft | 413 kts | 332° |
| 2026-05-09 08:08 | 23.54710 | 90.26774 | 21729 ft | 415 kts | 331° |
| 2026-05-09 08:08 | 23.57343 | 90.25453 | 22271 ft | 418 kts | 330° |
| 2026-05-09 08:08 | 23.59980 | 90.24096 | 22803 ft | 421 kts | 330° |
| 2026-05-09 08:09 | 23.62629 | 90.22706 | 23331 ft | 423 kts | 329° |
| 2026-05-09 08:09 | 23.65285 | 90.21297 | 23768 ft | 426 kts | 329° |
| 2026-05-09 08:09 | 23.67961 | 90.19873 | 24186 ft | 429 kts | 329° |
| 2026-05-09 08:09 | 23.70656 | 90.18447 | 24592 ft | 432 kts | 328° |
| 2026-05-09 08:10 | 23.73375 | 90.17013 | 24985 ft | 435 kts | 328° |
| 2026-05-09 08:10 | 23.76110 | 90.15571 | 25377 ft | 438 kts | 328° |
| 2026-05-09 08:10 | 23.78870 | 90.14118 | 25770 ft | 442 kts | 328° |
| 2026-05-09 08:10 | 23.81648 | 90.12660 | 26165 ft | 445 kts | 327° |
| 2026-05-09 08:11 | 23.84444 | 90.11194 | 26563 ft | 447 kts | 327° |
| 2026-05-09 08:11 | 23.87261 | 90.09716 | 26953 ft | 450 kts | 327° |
| 2026-05-09 08:11 | 23.90089 | 90.08230 | 27331 ft | 453 kts | 327° |
| 2026-05-09 08:11 | 23.92945 | 90.06726 | 27714 ft | 456 kts | 326° |
| 2026-05-09 08:12 | 23.98689 | 90.03692 | 28445 ft | 462 kts | 326° |
| 2026-05-09 08:12 | 24.01598 | 90.02181 | 28802 ft | 467 kts | 328° |
| 2026-05-09 08:12 | 24.04588 | 90.00744 | 29145 ft | 469 kts | 328° |
| 2026-05-09 08:13 | 24.07514 | 89.99185 | 29487 ft | 464 kts | 320° |
| 2026-05-09 08:13 | 24.10095 | 89.97139 | 29815 ft | 454 kts | 310° |
| 2026-05-09 08:13 | 24.12241 | 89.94659 | 30107 ft | 444 kts | 300° |
| 2026-05-09 08:13 | 24.14041 | 89.91922 | 30391 ft | 443 kts | 297° |
| 2026-05-09 08:14 | 24.15811 | 89.89153 | 30724 ft | 444 kts | 297° |
| 2026-05-09 08:14 | 24.17571 | 89.86389 | 31153 ft | 443 kts | 298° |
| 2026-05-09 08:14 | 24.19609 | 89.83813 | 31554 ft | 453 kts | 308° |
| 2026-05-09 08:14 | 24.22096 | 89.81625 | 31988 ft | 465 kts | 318° |
| 2026-05-09 08:15 | 24.24915 | 89.79897 | 32396 ft | 472 kts | 323° |
| 2026-05-09 08:15 | 24.27853 | 89.78213 | 32822 ft | 471 kts | 323° |
| 2026-05-09 08:15 | 24.30715 | 89.76564 | 33241 ft | 470 kts | 323° |
| 2026-05-09 08:15 | 24.33601 | 89.74894 | 33664 ft | 469 kts | 322° |
| 2026-05-09 08:16 | 24.36486 | 89.73219 | 33838 ft | 468 kts | 322° |
| 2026-05-09 08:16 | 24.39352 | 89.71555 | 33872 ft | 466 kts | 322° |
| 2026-05-09 08:16 | 24.45069 | 89.68227 | 33870 ft | 464 kts | 322° |
| 2026-05-09 08:17 | 24.50779 | 89.64902 | 33869 ft | 464 kts | 322° |
| 2026-05-09 08:17 | 24.56487 | 89.61582 | 33870 ft | 465 kts | 322° |
| 2026-05-09 08:18 | 24.62200 | 89.58252 | 33874 ft | 465 kts | 322° |
| 2026-05-09 08:18 | 24.67920 | 89.54922 | 33876 ft | 465 kts | 322° |
| 2026-05-09 08:19 | 24.73637 | 89.51584 | 33865 ft | 465 kts | 322° |
| 2026-05-09 08:19 | 24.79361 | 89.48234 | 33867 ft | 466 kts | 322° |
| 2026-05-09 08:20 | 24.85083 | 89.44886 | 33870 ft | 466 kts | 322° |
| 2026-05-09 08:20 | 24.90823 | 89.41525 | 33870 ft | 467 kts | 322° |
| 2026-05-09 08:21 | 24.96564 | 89.38157 | 33869 ft | 468 kts | 322° |
| 2026-05-09 08:21 | 25.02306 | 89.34785 | 33873 ft | 468 kts | 322° |
| 2026-05-09 08:22 | 25.08022 | 89.31428 | 33874 ft | 469 kts | 322° |
| 2026-05-09 08:22 | 25.13779 | 89.28051 | 33880 ft | 469 kts | 322° |
| 2026-05-09 08:23 | 25.19530 | 89.24665 | 33879 ft | 468 kts | 322° |
| 2026-05-09 08:23 | 25.22394 | 89.22977 | 33694 ft | 467 kts | 322° |
| 2026-05-09 08:23 | 25.25267 | 89.21283 | 32992 ft | 468 kts | 323° |
| 2026-05-09 08:24 | 25.28146 | 89.19585 | 32300 ft | 469 kts | 323° |
| 2026-05-09 08:24 | 25.31017 | 89.17889 | 31645 ft | 469 kts | 324° |
| 2026-05-09 08:24 | 25.33897 | 89.16189 | 30982 ft | 469 kts | 325° |
| 2026-05-09 08:24 | 25.36793 | 89.14477 | 30322 ft | 470 kts | 326° |
| 2026-05-09 08:25 | 25.39674 | 89.12776 | 29587 ft | 470 kts | 326° |
| 2026-05-09 08:25 | 25.42554 | 89.11074 | 28934 ft | 467 kts | 326° |
| 2026-05-09 08:25 | 25.45403 | 89.09393 | 28385 ft | 462 kts | 326° |
| 2026-05-09 08:25 | 25.48230 | 89.07723 | 27980 ft | 458 kts | 327° |
| 2026-05-09 08:26 | 25.51034 | 89.06063 | 27833 ft | 456 kts | 326° |
| 2026-05-09 08:26 | 25.53798 | 89.04422 | 27880 ft | 457 kts | 326° |
| 2026-05-09 08:26 | 25.56597 | 89.02756 | 27876 ft | 457 kts | 326° |
| 2026-05-09 08:26 | 25.59428 | 89.01069 | 27874 ft | 456 kts | 326° |
| 2026-05-09 08:27 | 25.62217 | 88.99406 | 27871 ft | 456 kts | 326° |
| 2026-05-09 08:27 | 25.65022 | 88.97736 | 27871 ft | 456 kts | 326° |
| 2026-05-09 08:27 | 25.67818 | 88.96078 | 27873 ft | 456 kts | 327° |
| 2026-05-09 08:27 | 25.70724 | 88.94736 | 27870 ft | 464 kts | 339° |
| 2026-05-09 08:28 | 25.73924 | 88.94094 | 27869 ft | 473 kts | 352° |
| 2026-05-09 08:28 | 25.77230 | 88.94241 | 27870 ft | 480 kts | 5° |
| 2026-05-09 08:28 | 25.80516 | 88.95225 | 27870 ft | 488 kts | 18° |
| 2026-05-09 08:28 | 25.83519 | 88.97016 | 27873 ft | 494 kts | 32° |
| 2026-05-09 08:29 | 25.86226 | 88.99303 | 27863 ft | 495 kts | 35° |
| 2026-05-09 08:29 | 25.88983 | 89.01673 | 27867 ft | 495 kts | 35° |
| 2026-05-09 08:29 | 25.91657 | 89.03974 | 27427 ft | 490 kts | 35° |
| 2026-05-09 08:29 | 25.94343 | 89.06288 | 26856 ft | 485 kts | 35° |
| 2026-05-09 08:30 | 25.96996 | 89.08569 | 26317 ft | 480 kts | 35° |
| 2026-05-09 08:30 | 25.99620 | 89.10823 | 25798 ft | 474 kts | 35° |
| 2026-05-09 08:30 | 26.02220 | 89.13055 | 25291 ft | 469 kts | 35° |
| 2026-05-09 08:30 | 26.04785 | 89.15258 | 24785 ft | 464 kts | 35° |
| 2026-05-09 08:31 | 26.07329 | 89.17446 | 24304 ft | 459 kts | 35° |
| 2026-05-09 08:31 | 26.09844 | 89.19609 | 23830 ft | 454 kts | 35° |
| 2026-05-09 08:31 | 26.12325 | 89.21744 | 23350 ft | 450 kts | 35° |
| 2026-05-09 08:31 | 26.14788 | 89.23865 | 22809 ft | 445 kts | 35° |
| 2026-05-09 08:32 | 26.17231 | 89.25971 | 22288 ft | 441 kts | 35° |
| 2026-05-09 08:32 | 26.19642 | 89.28049 | 21790 ft | 437 kts | 35° |
| 2026-05-09 08:32 | 26.24405 | 89.32157 | 20832 ft | 428 kts | 36° |
| 2026-05-09 08:33 | 26.26746 | 89.34183 | 20379 ft | 425 kts | 36° |
| 2026-05-09 08:33 | 26.29065 | 89.36193 | 19948 ft | 421 kts | 36° |
| 2026-05-09 08:33 | 26.31341 | 89.38164 | 19527 ft | 417 kts | 36° |
| 2026-05-09 08:33 | 26.33648 | 89.40166 | 19120 ft | 414 kts | 36° |
| 2026-05-09 08:34 | 26.35881 | 89.42104 | 18853 ft | 412 kts | 36° |
| 2026-05-09 08:34 | 26.38150 | 89.44073 | 18579 ft | 411 kts | 36° |
| 2026-05-09 08:34 | 26.40429 | 89.46046 | 18302 ft | 408 kts | 36° |
| 2026-05-09 08:34 | 26.42640 | 89.47957 | 18016 ft | 406 kts | 36° |
| 2026-05-09 08:35 | 26.44894 | 89.49905 | 17704 ft | 404 kts | 36° |
| 2026-05-09 08:35 | 26.47079 | 89.51798 | 17394 ft | 401 kts | 37° |
| 2026-05-09 08:35 | 26.49275 | 89.53706 | 17090 ft | 399 kts | 37° |
| 2026-05-09 08:35 | 26.51461 | 89.55608 | 16787 ft | 397 kts | 37° |
| 2026-05-09 08:36 | 26.53633 | 89.57496 | 16485 ft | 395 kts | 37° |
| 2026-05-09 08:36 | 26.55790 | 89.59370 | 16188 ft | 393 kts | 37° |
| 2026-05-09 08:36 | 26.57944 | 89.61242 | 15893 ft | 391 kts | 37° |
| 2026-05-09 08:36 | 26.60092 | 89.63113 | 15668 ft | 389 kts | 37° |
| 2026-05-09 08:37 | 26.62217 | 89.64967 | 15663 ft | 389 kts | 37° |
| 2026-05-09 08:37 | 26.64353 | 89.66831 | 15669 ft | 389 kts | 37° |
| 2026-05-09 08:37 | 26.66494 | 89.68695 | 15669 ft | 389 kts | 36° |
| 2026-05-09 08:37 | 26.68813 | 89.70230 | 15679 ft | 388 kts | 23° |
| 2026-05-09 08:38 | 26.71371 | 89.71172 | 15682 ft | 387 kts | 11° |
| 2026-05-09 08:38 | 26.74037 | 89.71481 | 15692 ft | 385 kts | 358° |
| 2026-05-09 08:38 | 26.76687 | 89.71165 | 15699 ft | 384 kts | 346° |
| 2026-05-09 08:38 | 26.79204 | 89.70243 | 15699 ft | 372 kts | 334° |
| 2026-05-09 08:39 | 26.81394 | 89.68856 | 15714 ft | 355 kts | 325° |
| 2026-05-09 08:39 | 26.83416 | 89.67374 | 15722 ft | 340 kts | 325° |
| 2026-05-09 08:39 | 26.85359 | 89.65955 | 15729 ft | 327 kts | 325° |
| 2026-05-09 08:39 | 26.87225 | 89.64593 | 15733 ft | 314 kts | 325° |
| 2026-05-09 08:40 | 26.89023 | 89.63276 | 15741 ft | 302 kts | 325° |
| 2026-05-09 08:40 | 26.90750 | 89.62010 | 15748 ft | 292 kts | 325° |
| 2026-05-09 08:40 | 26.92420 | 89.60788 | 15753 ft | 282 kts | 325° |
| 2026-05-09 08:40 | 26.94011 | 89.59624 | 15759 ft | 271 kts | 325° |
| 2026-05-09 08:41 | 26.95587 | 89.58467 | 15765 ft | 264 kts | 324° |
| 2026-05-09 08:41 | 26.97122 | 89.57338 | 15773 ft | 263 kts | 325° |
| 2026-05-09 08:41 | 26.98626 | 89.56231 | 15778 ft | 263 kts | 324° |
| 2026-05-09 08:41 | 27.00146 | 89.55112 | 15785 ft | 263 kts | 324° |
| 2026-05-09 08:42 | 27.01678 | 89.53984 | 15786 ft | 263 kts | 324° |
| 2026-05-09 08:42 | 27.03211 | 89.52855 | 15796 ft | 263 kts | 324° |
| 2026-05-09 08:42 | 27.04810 | 89.51851 | 15796 ft | 265 kts | 339° |
| 2026-05-09 08:42 | 27.06624 | 89.51468 | 15821 ft | 268 kts | 357° |
| 2026-05-09 08:43 | 27.13993 | 89.51179 | 15190 ft | 272 kts | 357° |
| 2026-05-09 08:44 | 27.15235 | 89.51125 | 15014 ft | 270 kts | 357° |
| 2026-05-09 08:44 | 27.17700 | 89.51020 | 14703 ft | 266 kts | 357° |
| 2026-05-09 08:44 | 27.19576 | 89.50941 | 14486 ft | 264 kts | 358° |
| 2026-05-09 08:44 | 27.21401 | 89.50863 | 14265 ft | 261 kts | 358° |
| 2026-05-09 08:45 | 27.23183 | 89.50789 | 14050 ft | 259 kts | 358° |
| 2026-05-09 08:45 | 27.24985 | 89.50717 | 13807 ft | 257 kts | 358° |
| 2026-05-09 08:45 | 27.26784 | 89.50646 | 13563 ft | 254 kts | 358° |
| 2026-05-09 08:45 | 27.28515 | 89.50577 | 13358 ft | 251 kts | 358° |
| 2026-05-09 08:46 | 27.30222 | 89.50241 | 13163 ft | 248 kts | 336° |
| 2026-05-09 08:46 | 27.31647 | 89.49241 | 12980 ft | 238 kts | 323° |
| 2026-05-09 08:46 | 27.32953 | 89.48174 | 12780 ft | 226 kts | 323° |
| 2026-05-09 08:46 | 27.34193 | 89.47162 | 12572 ft | 213 kts | 323° |
| 2026-05-09 08:47 | 27.35357 | 89.46216 | 12381 ft | 199 kts | 323° |
| 2026-05-09 08:47 | 27.36419 | 89.45353 | 12209 ft | 179 kts | 323° |
| 2026-05-09 08:47 | 27.37058 | 89.44807 | 12081 ft | 171 kts | 319° |
| 2026-05-09 08:47 | 27.38201 | 89.43612 | 11728 ft | 166 kts | 318° |
| 2026-05-09 08:48 | 27.39109 | 89.42812 | 11472 ft | 166 kts | 322° |
| 2026-05-09 08:48 | 27.39986 | 89.41976 | 11229 ft | 163 kts | 317° |
| 2026-05-09 08:48 | 27.40815 | 89.41111 | 10955 ft | 161 kts | 318° |
| 2026-05-09 08:48 | 27.41524 | 89.40150 | 10682 ft | 160 kts | 307° |
| 2026-05-09 08:49 | 27.41921 | 89.39447 | 10511 ft | 160 kts | 300° |
| 2026-05-09 08:49 | 27.42718 | 89.38022 | 10114 ft | 162 kts | 301° |
| 2026-05-09 08:49 | 27.43359 | 89.36973 | 9903 ft | 166 kts | 311° |
| 2026-05-09 08:49 | 27.44380 | 89.36397 | 9417 ft | 172 kts | 357° |
| 2026-05-09 08:50 | 27.45458 | 89.36898 | 8880 ft | 172 kts | 50° |
| 2026-05-09 08:50 | 27.45749 | 89.38086 | 8603 ft | 156 kts | 109° |
| 2026-05-09 08:50 | 27.45713 | 89.38202 | 8621 ft | 154 kts | 116° |
| 2026-05-09 08:50 | 27.45664 | 89.38317 | 8658 ft | 0 kts | 121° |